createdAt,value
2019-01-27T00:00:54.982Z,6.50
2019-01-27T00:03:25.691Z,6.70
2019-01-27T00:05:56.107Z,6.70
2019-01-27T00:08:26.538Z,6.70
2019-01-27T00:10:57.016Z,6.70
2019-01-27T00:13:27.419Z,6.70
2019-01-27T00:15:57.857Z,6.60
2019-01-27T00:18:28.322Z,6.70
2019-01-27T00:20:58.717Z,6.70
2019-01-27T00:23:29.162Z,6.60
2019-01-27T00:25:59.634Z,6.50
2019-01-27T00:28:30.112Z,6.50
2019-01-27T00:31:00.547Z,6.50
2019-01-27T00:33:31.018Z,6.50
2019-01-27T00:36:01.460Z,6.50
2019-01-27T00:38:31.906Z,6.50
2019-01-27T00:41:02.355Z,6.40
2019-01-27T00:43:32.794Z,6.50
2019-01-27T00:46:03.199Z,6.60
2019-01-27T00:48:33.686Z,6.60
2019-01-27T00:51:04.289Z,6.70
2019-01-27T00:53:34.717Z,6.70
2019-01-27T00:56:05.394Z,6.60
2019-01-27T00:58:35.846Z,6.60
2019-01-27T01:01:06.773Z,6.60
2019-01-27T01:03:37.164Z,6.80
2019-01-27T01:06:07.626Z,6.80
2019-01-27T01:08:39.259Z,6.90
2019-01-27T01:11:09.659Z,6.90
2019-01-27T01:13:40.060Z,7.00
2019-01-27T01:16:10.461Z,6.90
2019-01-27T01:18:40.858Z,6.90
2019-01-27T01:21:11.309Z,7.00
2019-01-27T01:23:41.754Z,7.00
2019-01-27T01:26:12.228Z,7.10
2019-01-27T01:28:42.615Z,7.20
2019-01-27T01:31:13.023Z,7.30
2019-01-27T01:33:43.445Z,7.30
2019-01-27T01:36:13.933Z,7.30
2019-01-27T01:38:44.367Z,7.30
2019-01-27T01:41:14.772Z,7.30
2019-01-27T01:43:45.164Z,7.20
2019-01-27T01:46:15.604Z,7.10
2019-01-27T01:48:45.977Z,7.10
2019-01-27T01:51:16.461Z,6.70
2019-01-27T01:53:46.908Z,6.70
2019-01-27T01:56:17.302Z,6.80
2019-01-27T01:58:47.770Z,6.70
2019-01-27T02:01:18.420Z,6.70
2019-01-27T02:03:48.855Z,6.80
2019-01-27T02:06:19.268Z,6.80
2019-01-27T02:08:49.674Z,6.90
2019-01-27T02:11:20.160Z,6.80
2019-01-27T02:13:50.579Z,7.00
2019-01-27T02:16:21.193Z,6.90
2019-01-27T02:18:51.610Z,6.80
2019-01-27T02:21:22.050Z,6.60
2019-01-27T02:23:52.483Z,6.60
2019-01-27T02:26:22.909Z,6.70
2019-01-27T02:28:53.310Z,6.50
2019-01-27T02:31:23.733Z,6.60
2019-01-27T02:33:54.152Z,6.70
2019-01-27T02:36:24.544Z,6.60
2019-01-27T02:38:54.955Z,6.60
2019-01-27T02:41:25.369Z,6.70
2019-01-27T02:43:55.817Z,6.70
2019-01-27T02:46:26.217Z,6.60
2019-01-27T02:48:56.686Z,6.60
2019-01-27T02:51:27.129Z,6.80
2019-01-27T02:53:57.689Z,6.80
2019-01-27T02:56:28.054Z,6.80
2019-01-27T02:58:58.453Z,6.80
2019-01-27T03:01:28.860Z,6.80
2019-01-27T03:03:59.300Z,6.80
2019-01-27T03:06:48.601Z,6.80
2019-01-27T03:09:22.709Z,6.80
2019-01-27T03:11:53.117Z,6.70
2019-01-27T03:14:24.001Z,6.80
2019-01-27T03:16:54.959Z,6.80
2019-01-27T03:19:25.386Z,6.80
2019-01-27T03:21:55.838Z,6.80
2019-01-27T03:24:26.278Z,6.90
2019-01-27T03:26:56.718Z,6.90
2019-01-27T03:29:27.121Z,6.90
2019-01-27T03:31:57.548Z,7.00
2019-01-27T03:34:27.963Z,7.10
2019-01-27T03:36:58.407Z,6.90
2019-01-27T03:39:28.835Z,6.90
2019-01-27T03:41:59.532Z,7.00
2019-01-27T03:44:29.950Z,7.00
2019-01-27T03:47:00.336Z,7.00
2019-01-27T03:49:30.737Z,7.00
2019-01-27T03:52:01.165Z,7.00
2019-01-27T03:54:31.580Z,7.20
2019-01-27T03:57:01.985Z,7.10
2019-01-27T03:59:32.451Z,7.10
2019-01-27T04:02:02.856Z,7.00
2019-01-27T04:04:33.252Z,7.00
2019-01-27T04:07:03.674Z,7.10
2019-01-27T04:09:34.359Z,7.00
2019-01-27T04:12:04.753Z,7.00
2019-01-27T04:14:35.171Z,6.90
2019-01-27T04:17:05.559Z,6.90
2019-01-27T04:19:35.954Z,7.00
2019-01-27T04:22:06.674Z,7.00
2019-01-27T04:24:37.105Z,7.00
2019-01-27T04:27:07.499Z,7.00
2019-01-27T04:29:37.888Z,7.10
2019-01-27T04:32:08.323Z,7.10
2019-01-27T04:34:38.741Z,7.20
2019-01-27T04:37:09.183Z,7.20
2019-01-27T04:39:39.613Z,7.20
2019-01-27T04:42:09.989Z,7.20
2019-01-27T04:44:40.430Z,7.10
2019-01-27T04:47:10.834Z,7.20
2019-01-27T04:49:41.282Z,7.20
2019-01-27T04:52:11.741Z,7.10
2019-01-27T04:54:42.148Z,6.90
2019-01-27T04:57:12.558Z,6.90
2019-01-27T04:59:42.973Z,7.10
2019-01-27T05:02:13.403Z,7.10
2019-01-27T05:04:43.934Z,7.10
2019-01-27T05:07:14.347Z,7.10
2019-01-27T05:09:44.720Z,7.00
2019-01-27T05:12:15.100Z,7.10
2019-01-27T05:14:45.564Z,7.10
2019-01-27T05:17:15.962Z,7.20
2019-01-27T05:19:46.389Z,7.10
2019-01-27T05:22:16.803Z,7.20
2019-01-27T05:24:47.202Z,7.30
2019-01-27T05:27:17.602Z,7.30
2019-01-27T05:29:47.982Z,7.30
2019-01-27T05:32:18.377Z,7.40
2019-01-27T05:34:48.789Z,7.30
2019-01-27T05:37:19.165Z,7.20
2019-01-27T05:39:49.559Z,7.30
2019-01-27T05:42:19.944Z,7.20
2019-01-27T05:44:50.379Z,7.20
2019-01-27T05:47:20.768Z,7.10
2019-01-27T05:49:51.195Z,7.10
2019-01-27T05:52:21.619Z,7.10
2019-01-27T05:54:52.042Z,7.10
2019-01-27T05:57:22.432Z,7.00
2019-01-27T05:59:52.831Z,6.90
2019-01-27T06:02:23.240Z,6.90
2019-01-27T06:04:53.629Z,6.90
2019-01-27T06:07:24.054Z,6.80
2019-01-27T06:09:57.237Z,6.70
2019-01-27T06:12:27.629Z,6.80
2019-01-27T06:14:58.071Z,6.80
2019-01-27T06:17:28.457Z,6.90
2019-01-27T06:19:58.902Z,7.00
2019-01-27T06:22:29.282Z,6.90
2019-01-27T06:24:59.704Z,7.10
2019-01-27T06:27:30.078Z,7.10
2019-01-27T06:30:00.489Z,7.20
2019-01-27T06:32:41.746Z,7.20
2019-01-27T06:35:12.286Z,7.30
2019-01-27T06:37:42.860Z,7.30
2019-01-27T06:40:13.398Z,7.30
2019-01-27T06:42:43.781Z,7.40
2019-01-27T06:45:14.680Z,7.30
2019-01-27T06:47:45.103Z,7.40
2019-01-27T06:50:15.583Z,7.40
2019-01-27T06:52:46.038Z,7.40
2019-01-27T06:55:16.780Z,7.40
2019-01-27T06:57:47.168Z,7.40
2019-01-27T07:00:37.016Z,7.50
2019-01-27T07:03:20.355Z,7.10
2019-01-27T07:06:27.625Z,7.10
2019-01-27T07:09:34.804Z,7.20
2019-01-27T07:12:27.275Z,7.30
2019-01-27T07:15:16.546Z,7.10
2019-01-27T07:17:59.895Z,7.20
2019-01-27T07:20:52.356Z,7.30
2019-01-27T07:23:30.618Z,7.30
2019-01-27T07:26:14.384Z,7.30
2019-01-27T07:29:03.673Z,7.30
2019-01-27T07:31:52.943Z,7.30
2019-01-27T07:34:42.667Z,7.10
2019-01-27T07:37:30.628Z,7.10
2019-01-27T07:40:16.317Z,7.00
2019-01-27T07:43:14.355Z,7.10
2019-01-27T07:46:15.611Z,7.20
2019-01-27T07:48:55.929Z,7.20
2019-01-27T07:51:45.244Z,7.20
2019-01-27T07:54:40.352Z,7.20
2019-01-27T07:57:28.024Z,7.30
2019-01-27T08:00:17.307Z,7.20
2019-01-27T08:03:12.081Z,7.10
2019-01-27T08:05:53.240Z,6.90
2019-01-27T08:08:38.635Z,6.90
2019-01-27T08:11:26.986Z,7.10
2019-01-27T08:14:12.150Z,7.10
2019-01-27T08:17:19.593Z,7.00
2019-01-27T08:20:07.329Z,6.90
2019-01-27T08:22:54.473Z,6.90
2019-01-27T08:25:47.742Z,7.10
2019-01-27T08:28:36.052Z,7.00
2019-01-27T08:31:25.657Z,7.10
2019-01-27T08:34:27.540Z,7.20
2019-01-27T08:37:16.848Z,7.20
2019-01-27T08:40:11.916Z,7.30
2019-01-27T08:43:02.907Z,7.20
2019-01-27T08:45:46.784Z,7.20
2019-01-27T08:48:17.263Z,7.20
2019-01-27T08:50:47.731Z,7.30
2019-01-27T08:53:18.194Z,7.20
2019-01-27T08:55:48.633Z,7.10
2019-01-27T08:58:19.077Z,7.10
2019-01-27T09:01:00.633Z,7.10
2019-01-27T09:03:42.726Z,7.20
2019-01-27T09:06:28.871Z,7.30
2019-01-27T09:09:10.421Z,7.40
2019-01-27T09:11:54.683Z,7.50
2019-01-27T09:14:50.020Z,7.50
2019-01-27T09:17:42.341Z,7.50
2019-01-27T09:20:30.568Z,7.50
2019-01-27T09:23:14.618Z,7.70
2019-01-27T09:26:10.076Z,7.70
2019-01-27T09:28:49.108Z,7.80
2019-01-27T09:31:27.562Z,7.70
2019-01-27T09:34:25.680Z,7.80
2019-01-27T09:37:24.132Z,7.80
2019-01-27T09:40:16.005Z,7.70
2019-01-27T09:43:17.116Z,7.80
2019-01-27T09:46:07.761Z,7.80
2019-01-27T09:48:43.012Z,7.90
2019-01-27T09:51:18.964Z,8.00
2019-01-27T09:54:14.357Z,8.10
2019-01-27T09:57:03.670Z,8.10
2019-01-27T09:59:59.101Z,8.20
2019-01-27T10:02:43.498Z,8.10
2019-01-27T10:05:24.804Z,8.00
2019-01-27T10:08:23.256Z,7.90
2019-01-27T10:11:12.588Z,7.90
2019-01-27T10:14:00.592Z,7.70
2019-01-27T10:16:37.436Z,7.60
2019-01-27T10:19:20.031Z,7.60
2019-01-27T10:22:02.172Z,7.70
2019-01-27T10:24:45.037Z,7.70
2019-01-27T10:27:33.053Z,7.60
2019-01-27T10:30:28.327Z,7.70
2019-01-27T10:33:17.635Z,7.60
2019-01-27T10:36:12.844Z,7.80
2019-01-27T10:38:51.650Z,8.00
2019-01-27T10:41:38.106Z,8.40
2019-01-27T10:44:25.768Z,8.60
2019-01-27T10:47:21.130Z,8.70
2019-01-27T10:50:13.547Z,8.90
2019-01-27T10:53:01.275Z,9.00
2019-01-27T10:55:59.524Z,9.10
2019-01-27T10:58:42.765Z,9.00
2019-01-27T11:01:30.489Z,9.00
2019-01-27T11:04:15.098Z,8.80
2019-01-27T11:07:04.399Z,8.60
2019-01-27T11:10:08.935Z,8.60
2019-01-27T11:13:16.301Z,8.80
2019-01-27T11:16:23.838Z,8.90
2019-01-27T11:19:10.959Z,8.90
2019-01-27T11:22:06.367Z,8.90
2019-01-27T11:24:52.773Z,8.80
2019-01-27T11:27:42.088Z,8.70
2019-01-27T11:30:24.905Z,8.60
2019-01-27T11:33:20.251Z,8.70
2019-01-27T11:36:12.320Z,8.40
2019-01-27T11:39:00.338Z,8.40
2019-01-27T11:41:55.438Z,8.20
2019-01-27T11:44:43.410Z,8.10
2019-01-27T11:47:31.415Z,8.20
2019-01-27T11:50:09.075Z,8.40
2019-01-27T11:52:42.752Z,8.50
2019-01-27T11:55:13.189Z,8.70
2019-01-27T11:57:43.649Z,8.90
2019-01-27T12:00:18.621Z,9.10
2019-01-27T12:02:49.048Z,9.10
2019-01-27T12:05:19.502Z,9.10
2019-01-27T12:07:49.988Z,9.20
2019-01-27T12:10:20.494Z,9.30
2019-01-27T12:12:50.992Z,9.10
2019-01-27T12:15:21.916Z,9.00
2019-01-27T12:17:52.305Z,8.90
2019-01-27T12:20:22.838Z,8.90
2019-01-27T12:22:53.263Z,8.80
2019-01-27T12:25:23.701Z,8.70
2019-01-27T12:27:54.156Z,8.50
2019-01-27T12:30:24.922Z,8.50
2019-01-27T12:32:55.401Z,8.40
2019-01-27T12:35:25.835Z,8.30
2019-01-27T12:37:56.313Z,8.30
2019-01-27T12:40:26.867Z,8.20
2019-01-27T12:42:57.334Z,8.30
2019-01-27T12:45:28.153Z,8.40
2019-01-27T12:47:58.639Z,8.50
2019-01-27T12:50:29.195Z,8.70
2019-01-27T12:52:59.599Z,8.80
2019-01-27T12:55:30.020Z,8.80
2019-01-27T12:58:00.501Z,8.90
2019-01-27T13:00:38.484Z,9.00
2019-01-27T13:03:09.046Z,8.90
2019-01-27T13:05:39.477Z,8.80
2019-01-27T13:08:09.914Z,8.70
2019-01-27T13:10:40.572Z,8.70
2019-01-27T13:13:12.165Z,8.60
2019-01-27T13:15:42.614Z,8.50
2019-01-27T13:18:13.046Z,8.70
2019-01-27T13:20:43.920Z,8.90
2019-01-27T13:23:14.383Z,9.00
2019-01-27T13:25:44.817Z,9.00
2019-01-27T13:28:15.266Z,9.00
2019-01-27T13:30:45.822Z,9.00
2019-01-27T13:33:16.279Z,9.10
2019-01-27T13:35:46.718Z,8.90
2019-01-27T13:38:17.152Z,8.90
2019-01-27T13:40:47.662Z,8.70
2019-01-27T13:43:18.091Z,8.80
2019-01-27T13:45:48.496Z,8.80
2019-01-27T13:48:19.045Z,8.70
2019-01-27T13:50:49.500Z,8.70
2019-01-27T13:53:19.997Z,8.80
2019-01-27T13:55:50.462Z,8.70
2019-01-27T13:58:20.956Z,8.80
2019-01-27T14:00:51.395Z,8.80
2019-01-27T14:03:21.818Z,8.70
2019-01-27T14:05:52.357Z,8.70
2019-01-27T14:08:22.806Z,8.60
2019-01-27T14:10:53.241Z,8.70
2019-01-27T14:13:23.693Z,8.60
2019-01-27T14:15:54.193Z,8.60
2019-01-27T14:18:24.617Z,8.70
2019-01-27T14:20:55.135Z,8.80
2019-01-27T14:23:25.573Z,8.90
2019-01-27T14:25:55.989Z,8.90
2019-01-27T14:28:26.475Z,9.00
2019-01-27T14:30:56.951Z,8.90
2019-01-27T14:33:27.339Z,8.90
2019-01-27T14:35:57.832Z,8.80
2019-01-27T14:38:28.322Z,8.80
2019-01-27T14:40:58.817Z,8.90
2019-01-27T14:43:29.292Z,8.90
2019-01-27T14:45:59.769Z,9.00
2019-01-27T14:48:30.230Z,8.90
2019-01-27T14:51:00.716Z,8.80
2019-01-27T14:53:31.229Z,8.90
2019-01-27T14:56:01.712Z,8.80
2019-01-27T14:58:32.162Z,8.60
2019-01-27T15:01:02.583Z,8.60
2019-01-27T15:03:33.031Z,8.60
2019-01-27T15:06:03.485Z,8.50
2019-01-27T15:08:33.906Z,8.50
2019-01-27T15:11:04.655Z,8.70
2019-01-27T15:13:35.094Z,8.70
2019-01-27T15:16:05.519Z,8.80
2019-01-27T15:18:35.970Z,8.80
2019-01-27T15:21:27.697Z,8.70
2019-01-27T15:23:58.181Z,8.60
2019-01-27T15:26:28.605Z,8.50
2019-01-27T15:28:59.056Z,8.50
2019-01-27T15:31:29.548Z,8.60
2019-01-27T15:34:00.030Z,8.50
2019-01-27T15:36:30.451Z,8.60
2019-01-27T15:39:00.925Z,8.60
2019-01-27T15:41:31.396Z,8.60
2019-01-27T15:44:01.847Z,8.40
2019-01-27T15:46:32.278Z,8.50
2019-01-27T15:49:02.735Z,8.50
2019-01-27T15:51:33.226Z,8.50
2019-01-27T15:54:03.686Z,8.40
2019-01-27T15:56:34.152Z,8.30
2019-01-27T15:59:04.651Z,8.30
2019-01-27T16:01:35.128Z,8.30
2019-01-27T16:04:05.695Z,8.30
2019-01-27T16:06:36.160Z,8.20
2019-01-27T16:09:08.960Z,8.20
2019-01-27T16:11:39.422Z,8.20
2019-01-27T16:14:09.918Z,8.30
2019-01-27T16:16:40.323Z,8.20
2019-01-27T16:19:10.757Z,8.20
2019-01-27T16:21:41.224Z,8.10
2019-01-27T16:24:25.634Z,8.10
2019-01-27T16:26:56.123Z,8.00
2019-01-27T16:29:57.503Z,8.10
2019-01-27T16:32:34.554Z,8.20
2019-01-27T16:35:09.120Z,8.20
2019-01-27T16:37:39.550Z,8.30
2019-01-27T16:40:14.157Z,8.20
2019-01-27T16:42:44.598Z,8.30
2019-01-27T16:45:16.440Z,8.30
2019-01-27T16:47:46.908Z,8.40
2019-01-27T16:50:17.687Z,8.40
2019-01-27T16:52:48.185Z,8.40
2019-01-27T16:55:18.926Z,8.40
2019-01-27T16:57:49.354Z,8.20
2019-01-27T17:00:23.658Z,8.20
2019-01-27T17:02:54.063Z,8.20
2019-01-27T17:05:24.536Z,8.20
2019-01-27T17:07:54.987Z,8.20
2019-01-27T17:10:25.780Z,8.10
2019-01-27T17:12:56.742Z,8.20
2019-01-27T17:15:27.222Z,8.30
2019-01-27T17:17:57.613Z,8.40
2019-01-27T17:20:28.182Z,8.40
2019-01-27T17:22:58.862Z,8.30
2019-01-27T17:25:29.302Z,8.30
2019-01-27T17:27:59.824Z,8.10
2019-01-27T17:30:30.515Z,7.80
2019-01-27T17:33:01.067Z,7.70
2019-01-27T17:35:31.537Z,7.60
2019-01-27T17:38:01.997Z,7.70
2019-01-27T17:40:32.409Z,7.60
2019-01-27T17:43:03.008Z,7.60
2019-01-27T17:45:33.506Z,7.70
2019-01-27T17:48:04.239Z,7.70
2019-01-27T17:50:34.667Z,7.80
2019-01-27T17:53:05.852Z,7.90
2019-01-27T17:55:40.088Z,7.90
2019-01-27T17:58:42.264Z,7.90
2019-01-27T18:01:31.598Z,8.00
2019-01-27T18:04:19.534Z,8.10
2019-01-27T18:07:19.223Z,8.10
2019-01-27T18:10:14.580Z,8.00
2019-01-27T18:12:53.006Z,8.00
2019-01-27T18:15:23.474Z,8.00
2019-01-27T18:17:54.022Z,7.90
2019-01-27T18:20:24.503Z,7.90
2019-01-27T18:22:54.965Z,7.90
2019-01-27T18:25:25.491Z,8.00
2019-01-27T18:27:55.936Z,8.10
2019-01-27T18:30:26.890Z,8.10
2019-01-27T18:32:57.411Z,8.10
2019-01-27T18:35:27.851Z,8.00
2019-01-27T18:37:58.332Z,7.90
2019-01-27T18:40:28.784Z,7.60
2019-01-27T18:42:59.241Z,7.60
2019-01-27T18:45:29.731Z,7.60
2019-01-27T18:48:00.223Z,7.50
2019-01-27T18:50:30.732Z,7.40
2019-01-27T18:53:26.064Z,7.30
2019-01-27T18:56:30.593Z,7.20
2019-01-27T18:59:07.058Z,6.90
2019-01-27T19:01:59.400Z,6.80
2019-01-27T19:04:47.381Z,6.80
2019-01-27T19:07:31.961Z,6.50
2019-01-27T19:10:24.297Z,6.50
2019-01-27T19:13:22.755Z,6.40
2019-01-27T19:16:04.276Z,6.40
2019-01-27T19:18:52.241Z,6.40
2019-01-27T19:21:39.995Z,6.40
2019-01-27T19:24:28.238Z,6.50
2019-01-27T19:27:14.544Z,6.50
2019-01-27T19:30:12.574Z,6.50
2019-01-27T19:33:08.008Z,6.60
2019-01-27T19:35:56.187Z,6.60
2019-01-27T19:38:49.417Z,6.60
2019-01-27T19:41:33.741Z,6.60
2019-01-27T19:44:20.047Z,6.50
2019-01-27T19:47:09.410Z,6.50
2019-01-27T19:49:58.768Z,6.50
2019-01-27T19:52:49.460Z,6.50
2019-01-27T19:55:30.484Z,6.60
2019-01-27T19:58:18.633Z,6.50
2019-01-27T20:01:13.837Z,6.40
2019-01-27T20:03:54.155Z,6.20
2019-01-27T20:06:33.570Z,6.20
2019-01-27T20:09:37.136Z,6.30
2019-01-27T20:12:32.286Z,6.10
2019-01-27T20:15:33.735Z,6.10
2019-01-27T20:18:29.085Z,6.10
2019-01-27T20:21:17.072Z,6.00
2019-01-27T20:24:06.069Z,6.00
2019-01-27T20:26:54.019Z,5.90
2019-01-27T20:29:49.143Z,5.90
2019-01-27T20:32:38.440Z,5.80
2019-01-27T20:35:26.478Z,5.80
2019-01-27T20:38:21.859Z,5.80
2019-01-27T20:41:13.924Z,5.90
2019-01-27T20:44:01.371Z,5.80
2019-01-27T20:47:02.723Z,5.70
2019-01-27T20:49:48.705Z,5.90
2019-01-27T20:52:40.907Z,5.80
2019-01-27T20:55:33.429Z,5.70
2019-01-27T20:58:25.533Z,5.80
2019-01-27T21:01:23.720Z,5.70
2019-01-27T21:03:59.647Z,5.60
2019-01-27T21:06:58.030Z,5.70
2019-01-27T21:09:39.143Z,5.70
2019-01-27T21:12:37.041Z,5.70
2019-01-27T21:15:44.255Z,5.60
2019-01-27T21:18:42.703Z,5.50
2019-01-27T21:21:13.124Z,5.40
2019-01-27T21:23:43.570Z,5.50
2019-01-27T21:26:14.052Z,5.50
2019-01-27T21:28:44.485Z,5.60
2019-01-27T21:31:14.970Z,5.50
2019-01-27T21:33:45.451Z,5.50
2019-01-27T21:36:16.459Z,5.60
2019-01-27T21:38:46.952Z,5.60
2019-01-27T21:41:17.360Z,5.50
2019-01-27T21:43:47.849Z,5.60
2019-01-27T21:46:18.301Z,5.40
2019-01-27T21:48:48.811Z,5.40
2019-01-27T21:51:19.611Z,5.50
2019-01-27T21:53:52.243Z,5.50
2019-01-27T21:56:22.753Z,5.50
2019-01-27T21:58:53.198Z,5.50
2019-01-27T22:01:25.448Z,5.50
2019-01-27T22:03:57.133Z,5.40
2019-01-27T22:06:27.573Z,5.40
2019-01-27T22:08:58.009Z,5.40
2019-01-27T22:11:28.509Z,5.40
2019-01-27T22:13:58.939Z,5.40
2019-01-27T22:16:29.520Z,5.30
2019-01-27T22:19:00.205Z,5.20
2019-01-27T22:21:30.703Z,5.20
2019-01-27T22:24:01.101Z,5.20
2019-01-27T22:26:31.553Z,5.20
2019-01-27T22:29:01.978Z,5.20
2019-01-27T22:31:32.470Z,5.10
2019-01-27T22:34:02.896Z,5.10
2019-01-27T22:36:33.438Z,5.20
2019-01-27T22:39:05.590Z,5.20
2019-01-27T22:41:36.101Z,5.20
2019-01-27T22:44:06.800Z,5.10
2019-01-27T22:46:37.231Z,5.20
2019-01-27T22:49:07.747Z,5.30
2019-01-27T22:51:38.171Z,5.30
2019-01-27T22:54:09.962Z,5.30
2019-01-27T22:56:40.407Z,5.20
2019-01-27T22:59:10.822Z,5.10
2019-01-27T23:01:41.345Z,5.10
2019-01-27T23:04:11.779Z,5.10
2019-01-27T23:06:42.276Z,5.20
2019-01-27T23:09:16.508Z,5.20
2019-01-27T23:11:46.947Z,5.30
2019-01-27T23:14:17.370Z,5.30
2019-01-27T23:16:47.818Z,5.20
2019-01-27T23:19:18.234Z,5.30
2019-01-27T23:21:48.659Z,5.30
2019-01-27T23:24:19.091Z,5.30
2019-01-27T23:26:49.699Z,5.30
2019-01-27T23:29:20.223Z,5.30
2019-01-27T23:31:50.619Z,5.20
2019-01-27T23:34:21.087Z,5.30
2019-01-27T23:36:51.486Z,5.30
2019-01-27T23:39:21.926Z,5.20
2019-01-27T23:41:52.444Z,5.30
2019-01-27T23:44:22.935Z,5.20
2019-01-27T23:46:53.310Z,5.20
2019-01-27T23:49:23.735Z,5.20
2019-01-27T23:51:54.224Z,5.20
2019-01-27T23:54:24.616Z,5.20
2019-01-27T23:56:55.027Z,5.10
2019-01-27T23:59:25.477Z,5.10
